Time;durP1;ratioP1;P1;durP2;ratioP2;P2;SDS_P1;SDS_P2;PMS_P1;PMS_P2;Temp;Humidity;BMP_temperature;BMP_pressure;BME280_temperature;BME280_humidity;BME280_pressure;Samples;Min_cycle;Max_cycle;Signal;HPM_P1;HPM_P2
2024/03/24 00:01:16;;;;;;;6.75;1.90;;;;;;;10.32;72.27;99232.88;5130288;27;20051;-51
2024/03/24 00:03:43;;;;;;;3.28;2.00;;;;;;;10.18;72.37;99215.25;5130487;28;20047;-53
2024/03/24 00:06:10;;;;;;;3.17;1.73;;;;;;;10.08;72.43;99216.06;5130094;27;20553;-52
2024/03/24 00:08:37;;;;;;;3.72;1.80;;;;;;;10.08;71.86;99208.91;5132652;27;20043;-54
2024/03/24 00:11:03;;;;;;;2.95;1.60;;;;;;;10.21;71.64;99209.69;5134049;27;20558;-55
2024/03/24 00:13:32;;;;;;;7.35;2.10;;;;;;;9.87;71.79;99208.69;5133998;27;20055;-53
2024/03/24 00:15:59;;;;;;;3.20;1.83;;;;;;;9.96;72.25;99223.16;5134113;27;20247;-53
2024/03/24 00:18:26;;;;;;;3.58;1.83;;;;;;;9.92;71.88;99221.66;5134205;27;20070;-52
2024/03/24 00:20:52;;;;;;;3.53;1.90;;;;;;;10.03;71.76;99237.69;5134014;27;20126;-50
2024/03/24 00:23:20;;;;;;;5.68;2.00;;;;;;;9.88;71.38;99228.19;5133894;27;20592;-54
2024/03/24 00:25:46;;;;;;;4.57;1.90;;;;;;;9.69;71.88;99213.56;5133831;27;20109;-54
2024/03/24 00:28:13;;;;;;;4.25;2.30;;;;;;;9.60;72.45;99208.91;5134006;27;20050;-52
2024/03/24 00:30:41;;;;;;;4.63;1.88;;;;;;;9.68;72.22;99217.19;5133893;27;20083;-54
2024/03/24 00:33:08;;;;;;;4.97;1.92;;;;;;;9.65;72.63;99233.38;5133692;27;20126;-52
2024/03/24 00:35:35;;;;;;;2.97;1.77;;;;;;;9.78;72.54;99235.16;5133560;27;20416;-52
2024/03/24 00:38:02;;;;;;;3.97;2.10;;;;;;;9.85;72.09;99245.25;5133597;27;20043;-55
2024/03/24 00:40:28;;;;;;;4.03;1.90;;;;;;;9.85;72.12;99261.22;5133910;27;20065;-53
2024/03/24 00:42:56;;;;;;;5.22;2.20;;;;;;;9.85;72.37;99276.38;5133570;27;20043;-57
2024/03/24 00:45:22;;;;;;;3.88;2.08;;;;;;;9.84;72.45;99286.13;5133377;27;20121;-51
2024/03/24 00:47:51;;;;;;;4.38;1.98;;;;;;;9.87;72.51;99309.06;5133395;27;20066;-54
2024/03/24 00:50:18;;;;;;;4.85;2.20;;;;;;;9.61;72.66;99317.09;5133161;27;20434;-52
2024/03/24 00:52:45;;;;;;;3.38;1.95;;;;;;;9.71;72.68;99331.44;5133422;27;20054;-53
2024/03/24 00:55:11;;;;;;;3.30;1.83;;;;;;;9.86;72.18;99336.66;5133166;27;20329;-52
2024/03/24 00:57:39;;;;;;;3.42;1.90;;;;;;;9.90;72.25;99348.78;5133423;27;20142;-56
2024/03/24 01:00:06;;;;;;;4.32;2.00;;;;;;;9.97;71.31;99361.56;5115986;27;20443;-55
2024/03/24 01:02:36;;;;;;;4.18;2.03;;;;;;;9.90;71.52;99364.75;5133201;27;20055;-54
2024/03/24 01:05:07;;;;;;;3.65;1.92;;;;;;;10.04;71.48;99361.97;5133104;27;20057;-55
2024/03/24 01:07:35;;;;;;;5.32;2.30;;;;;;;10.09;71.46;99364.28;5132761;27;20083;-56
2024/03/24 01:10:01;;;;;;;4.57;2.53;;;;;;;9.97;71.49;99360.72;5132837;27;20653;-53
2024/03/24 01:12:28;;;;;;;4.30;2.35;;;;;;;10.05;71.47;99342.38;5133035;27;20043;-52
2024/03/24 01:14:54;;;;;;;4.07;2.38;;;;;;;9.79;72.49;99336.22;5132540;27;20455;-53
2024/03/24 01:17:21;;;;;;;5.45;2.53;;;;;;;9.75;72.96;99314.31;5133048;27;20441;-53
2024/03/24 01:19:48;;;;;;;4.57;2.60;;;;;;;9.74;72.47;99298.41;5133048;27;20420;-55
2024/03/24 01:22:17;;;;;;;5.25;2.80;;;;;;;9.80;72.74;99294.47;5132687;27;20046;-55
2024/03/24 01:24:43;;;;;;;4.40;2.78;;;;;;;9.75;73.30;99298.34;5132862;27;20503;-55
2024/03/24 01:27:10;;;;;;;5.22;2.38;;;;;;;9.73;73.33;99292.25;5132616;27;20152;-55
2024/03/24 01:29:36;;;;;;;6.65;2.95;;;;;;;9.72;73.70;99284.38;5132713;27;20130;-56
2024/03/24 01:32:04;;;;;;;6.72;2.85;;;;;;;9.79;73.40;99271.47;5132938;27;20452;-52
2024/03/24 01:34:30;;;;;;;4.78;2.78;;;;;;;9.62;74.19;99265.53;5133214;27;20039;-53
2024/03/24 01:36:58;;;;;;;6.55;2.88;;;;;;;9.61;74.24;99258.50;5132702;27;20050;-52
2024/03/24 01:39:25;;;;;;;6.53;3.03;;;;;;;9.54;75.12;99267.88;5132687;27;20511;-55
2024/03/24 01:41:53;;;;;;;4.15;2.40;;;;;;;9.68;74.88;99258.94;5132532;27;20053;-52
2024/03/24 01:44:19;;;;;;;6.32;3.30;;;;;;;9.74;74.52;99258.47;5132631;27;20635;-52
2024/03/24 01:46:46;;;;;;;5.95;3.15;;;;;;;9.51;75.37;99265.47;5132487;27;20086;-54
2024/03/24 01:49:12;;;;;;;5.40;3.17;;;;;;;9.55;75.60;99271.41;5132302;27;20522;-52
2024/03/24 01:51:40;;;;;;;5.07;2.97;;;;;;;9.56;75.58;99284.63;5132089;27;20065;-55
2024/03/24 01:54:08;;;;;;;7.28;3.40;;;;;;;9.41;76.00;99267.06;5132195;27;20097;-51
2024/03/24 01:56:37;;;;;;;6.13;3.10;;;;;;;9.43;76.96;99286.44;5132426;27;20055;-53
2024/03/24 01:59:04;;;;;;;5.97;3.42;;;;;;;9.45;76.77;99287.19;5132485;27;20082;-53
2024/03/24 02:01:31;;;;;;;6.07;3.60;;;;;;;9.42;77.09;99292.72;5132301;27;20119;-54
2024/03/24 02:03:57;;;;;;;6.28;3.70;;;;;;;9.65;77.02;99305.28;5132033;27;20050;-56
2024/03/24 02:06:25;;;;;;;6.40;3.50;;;;;;;9.83;76.03;99310.22;5132680;27;20091;-55
2024/03/24 02:08:51;;;;;;;7.43;3.72;;;;;;;9.81;75.75;99317.47;5132578;27;20049;-52
2024/03/24 02:11:18;;;;;;;6.55;3.20;;;;;;;9.73;75.74;99308.22;5132236;27;20488;-52
2024/03/24 02:13:46;;;;;;;6.20;3.33;;;;;;;9.73;76.38;99302.88;5131823;27;20096;-51
2024/03/24 02:16:13;;;;;;;6.00;3.35;;;;;;;9.72;76.18;99298.53;5131874;27;20077;-52
2024/03/24 02:18:40;;;;;;;6.03;3.50;;;;;;;9.82;76.13;99300.53;5131765;27;20054;-55
2024/03/24 02:21:07;;;;;;;6.53;3.55;;;;;;;9.67;76.43;99284.72;5131886;27;20070;-55
2024/03/24 02:23:35;;;;;;;5.32;3.08;;;;;;;9.72;76.24;99289.69;5131677;27;20130;-54
2024/03/24 02:26:02;;;;;;;5.80;3.38;;;;;;;9.55;76.80;99290.88;5131706;27;20045;-53
2024/03/24 02:28:29;;;;;;;6.22;3.33;;;;;;;9.74;76.39;99304.59;5131560;27;20047;-54
2024/03/24 02:30:56;;;;;;;5.93;3.25;;;;;;;9.84;75.72;99314.59;5130944;27;20131;-53
2024/03/24 02:33:25;;;;;;;5.32;3.15;;;;;;;9.67;76.21;99311.34;5131276;27;20043;-55
2024/03/24 02:35:53;;;;;;;6.25;3.50;;;;;;;9.78;76.04;99329.22;5131712;27;20047;-52
2024/03/24 02:38:19;;;;;;;5.43;3.33;;;;;;;9.66;76.02;99333.59;5131551;27;20074;-54
2024/03/24 02:40:50;;;;;;;5.00;3.42;;;;;;;9.74;75.32;99339.22;5131428;27;20043;-58
2024/03/24 02:43:18;;;;;;;7.63;3.42;;;;;;;9.73;75.24;99353.50;5131227;27;20487;-55
2024/03/24 02:45:44;;;;;;;5.63;3.38;;;;;;;9.61;75.09;99345.53;5131491;27;20096;-53
2024/03/24 02:48:11;;;;;;;5.97;3.88;;;;;;;9.44;75.91;99346.69;5131450;27;20118;-56
2024/03/24 02:50:37;;;;;;;5.38;3.30;;;;;;;9.35;75.79;99339.34;5130936;27;20497;-52
2024/03/24 02:53:05;;;;;;;6.22;3.38;;;;;;;9.45;75.47;99337.75;5131178;27;20398;-53
2024/03/24 02:55:31;;;;;;;5.93;3.50;;;;;;;9.55;74.71;99345.94;5131082;27;20050;-54
2024/03/24 02:58:00;;;;;;;5.03;3.00;;;;;;;9.39;74.29;99333.72;5130934;27;20047;-55
2024/03/24 03:00:27;;;;;;;5.00;3.40;;;;;;;9.44;73.48;99336.06;5130802;27;20077;-53
2024/03/24 03:02:54;;;;;;;4.97;3.15;;;;;;;9.31;73.77;99345.88;5130318;27;20086;-55
2024/03/24 03:05:20;;;;;;;4.65;2.67;;;;;;;9.26;73.48;99334.66;5130573;27;20122;-60
2024/03/24 03:07:48;;;;;;;5.90;3.15;;;;;;;9.11;73.45;99313.50;5130831;27;20043;-55
2024/03/24 03:10:14;;;;;;;6.75;3.10;;;;;;;9.14;72.78;99286.69;5130745;27;20134;-50
2024/03/24 03:12:42;;;;;;;4.63;2.80;;;;;;;9.03;73.48;99293.69;5130598;27;20051;-52
2024/03/24 03:15:15;;;;;;;6.72;3.22;;;;;;;9.23;72.48;99310.94;5130277;27;20051;-57
2024/03/24 03:17:42;;;;;;;7.32;3.17;;;;;;;9.17;72.97;99328.19;5130614;27;20057;-54
2024/03/24 03:20:12;;;;;;;6.22;3.22;;;;;;;8.92;73.40;99333.47;5130747;27;20051;-50
2024/03/24 03:22:45;;;;;;;7.53;3.05;;;;;;;9.01;72.90;99330.19;5130561;27;20050;-54
2024/03/24 03:25:12;;;;;;;5.85;2.88;;;;;;;8.96;72.86;99346.44;5130609;27;20039;-54
2024/03/24 03:27:38;;;;;;;7.18;3.13;;;;;;;8.85;73.17;99359.63;5130290;27;20492;-50
2024/03/24 03:30:06;;;;;;;6.55;3.10;;;;;;;9.06;72.83;99374.13;5130521;27;20047;-50
2024/03/24 03:32:35;;;;;;;6.43;3.13;;;;;;;9.07;72.41;99372.31;5130492;27;20106;-55
2024/03/24 03:35:03;;;;;;;5.43;3.28;;;;;;;9.10;71.93;99362.34;5130365;27;20051;-53
2024/03/24 03:37:30;;;;;;;4.40;2.80;;;;;;;9.17;72.03;99355.66;5130581;27;20115;-56
2024/03/24 03:39:57;;;;;;;6.55;3.15;;;;;;;8.80;72.29;99337.84;5130284;27;20079;-53
2024/03/24 03:42:23;;;;;;;5.35;2.58;;;;;;;8.84;71.93;99331.34;5129612;27;20106;-54
2024/03/24 03:44:50;;;;;;;6.53;3.28;;;;;;;8.97;72.17;99316.25;5130363;27;20054;-51
2024/03/24 03:47:18;;;;;;;6.63;2.88;;;;;;;8.78;72.89;99321.09;5130335;27;20071;-52
2024/03/24 03:49:51;;;;;;;6.30;3.20;;;;;;;8.95;72.02;99323.47;5129776;28;20092;-54
2024/03/24 03:52:17;;;;;;;5.43;2.95;;;;;;;9.04;71.87;99322.00;5131118;27;20207;-55
2024/03/24 03:54:45;;;;;;;5.55;3.10;;;;;;;8.87;72.45;99320.47;5133573;27;20079;-57
2024/03/24 03:57:11;;;;;;;5.03;3.03;;;;;;;8.69;72.21;99311.97;5130341;27;20047;-52
2024/03/24 03:59:38;;;;;;;6.03;2.97;;;;;;;8.74;72.60;99288.56;5130429;28;20047;-55
2024/03/24 04:02:06;;;;;;;9.18;3.25;;;;;;;8.76;72.64;99294.63;5130355;27;20047;-54
2024/03/24 04:04:32;;;;;;;7.15;3.28;;;;;;;8.77;72.78;99303.44;5130409;28;20096;-55
2024/03/24 04:07:04;;;;;;;5.25;2.83;;;;;;;8.64;72.72;99310.56;5130288;27;20146;-54
2024/03/24 04:09:30;;;;;;;5.50;2.72;;;;;;;8.60;72.87;99297.47;5130358;28;20083;-54
2024/03/24 04:11:57;;;;;;;5.50;3.05;;;;;;;8.23;74.31;99299.03;5130513;27;20054;-54
2024/03/24 04:14:24;;;;;;;6.68;3.10;;;;;;;8.29;74.15;99332.31;5130333;27;20050;-53
2024/03/24 04:16:53;;;;;;;7.10;3.05;;;;;;;8.42;74.11;99346.53;5130683;28;20054;-55
2024/03/24 04:19:19;;;;;;;5.55;2.90;;;;;;;8.69;73.28;99351.84;5130566;28;20043;-54
2024/03/24 04:21:47;;;;;;;6.47;3.10;;;;;;;8.44;73.65;99360.56;5130415;28;20054;-55
2024/03/24 04:24:14;;;;;;;7.65;2.92;;;;;;;8.43;73.57;99364.19;5130106;28;20604;-56
2024/03/24 04:26:42;;;;;;;5.32;2.90;;;;;;;8.48;73.53;99372.69;5130221;28;20043;-54
2024/03/24 04:29:08;;;;;;;6.22;3.15;;;;;;;8.47;73.55;99376.31;5130848;27;20185;-56
2024/03/24 04:31:35;;;;;;;6.93;2.83;;;;;;;8.51;73.59;99376.97;5131687;27;20134;-55
2024/03/24 04:34:02;;;;;;;4.47;2.55;;;;;;;8.33;73.53;99366.56;5130883;27;20047;-54
2024/03/24 04:36:30;;;;;;;7.25;3.13;;;;;;;8.55;72.93;99370.50;5130528;28;20040;-58
2024/03/24 04:38:56;;;;;;;6.38;2.90;;;;;;;8.43;73.13;99364.19;5129866;27;20043;-54
2024/03/24 04:41:25;;;;;;;6.65;2.70;;;;;;;8.17;73.31;99349.03;5130067;27;20039;-56
2024/03/24 04:43:51;;;;;;;7.18;2.80;;;;;;;8.26;73.49;99356.44;5130082;27;20127;-54
2024/03/24 04:46:19;;;;;;;4.90;2.72;;;;;;;8.33;73.01;99365.72;5130068;27;20047;-56
2024/03/24 04:48:45;;;;;;;5.03;2.45;;;;;;;8.29;72.91;99372.16;5129841;27;20047;-54
2024/03/24 04:51:12;;;;;;;5.28;2.75;;;;;;;8.09;73.14;99381.41;5129314;27;20110;-55
2024/03/24 04:53:38;;;;;;;4.63;2.45;;;;;;;8.30;72.59;99379.19;5129962;27;20079;-56
2024/03/24 04:56:06;;;;;;;5.38;2.60;;;;;;;8.19;73.04;99374.56;5133334;27;20134;-56
2024/03/24 04:58:34;;;;;;;4.85;2.60;;;;;;;8.35;72.31;99377.13;5132954;27;20455;-56
2024/03/24 05:01:01;;;;;;;4.78;2.67;;;;;;;8.54;71.67;99377.63;5133471;27;20082;-55
2024/03/24 05:03:27;;;;;;;5.53;2.88;;;;;;;8.64;71.00;99375.22;5132909;27;20043;-53
2024/03/24 05:05:56;;;;;;;6.05;3.28;;;;;;;8.72;70.63;99372.06;5133243;27;20067;-50
2024/03/24 05:08:22;;;;;;;4.57;2.67;;;;;;;8.36;70.20;99365.53;5133291;27;20051;-52
2024/03/24 05:10:50;;;;;;;6.22;2.50;;;;;;;8.28;71.31;99365.13;5133446;27;20039;-55
2024/03/24 05:13:16;;;;;;;5.93;2.97;;;;;;;8.29;70.80;99370.34;5133470;27;20050;-55
2024/03/24 05:15:51;;;;;;;5.97;2.63;;;;;;;8.37;70.87;99383.19;5133033;27;20134;-58
2024/03/24 05:18:17;;;;;;;6.57;2.60;;;;;;;8.53;69.82;99385.69;5133190;27;20126;-56
2024/03/24 05:20:45;;;;;;;6.18;2.60;;;;;;;8.22;70.43;99378.84;5133121;27;20090;-55
2024/03/24 05:23:18;;;;;;;3.88;2.45;;;;;;;8.53;69.74;99385.69;5133465;27;20087;-55
2024/03/24 05:25:49;;;;;;;5.90;2.37;;;;;;;8.68;69.02;99400.63;5133664;27;20043;-53
2024/03/24 05:28:15;;;;;;;5.13;2.20;;;;;;;8.63;68.91;99407.22;5132908;27;20455;-53
2024/03/24 05:30:42;;;;;;;6.15;1.95;;;;;;;8.78;68.62;99407.06;5132892;27;20779;-56
2024/03/24 05:33:10;;;;;;;4.43;2.30;;;;;;;8.74;68.75;99407.34;5132565;27;20415;-55
2024/03/24 05:35:37;;;;;;;5.18;2.45;;;;;;;8.78;68.07;99406.19;5132917;27;20479;-55
2024/03/24 05:38:04;;;;;;;2.88;1.83;;;;;;;8.83;67.62;99396.13;5132983;27;20078;-53
2024/03/24 05:40:31;;;;;;;5.47;2.33;;;;;;;8.64;67.80;99398.28;5132917;27;20039;-54
2024/03/24 05:42:57;;;;;;;5.13;1.80;;;;;;;8.84;67.34;99403.13;5132800;27;20049;-54
2024/03/24 05:45:25;;;;;;;5.05;2.00;;;;;;;8.96;67.10;99394.34;5132779;27;20403;-55
2024/03/24 05:47:51;;;;;;;3.90;2.10;;;;;;;8.83;67.11;99399.63;5132471;27;20096;-54
2024/03/24 05:50:20;;;;;;;5.43;2.10;;;;;;;8.64;66.78;99403.59;5132624;27;20078;-52
2024/03/24 05:52:46;;;;;;;5.45;2.38;;;;;;;8.93;66.54;99405.19;5132389;27;20403;-52
2024/03/24 05:55:15;;;;;;;3.83;1.85;;;;;;;8.72;65.88;99409.28;5132539;27;20180;-54
2024/03/24 05:57:41;;;;;;;4.97;1.95;;;;;;;8.76;66.37;99403.63;5132525;27;20114;-55
2024/03/24 06:00:11;;;;;;;4.80;1.92;;;;;;;8.66;66.49;99401.69;5132501;27;20050;-55
2024/03/24 06:02:38;;;;;;;4.10;1.90;;;;;;;8.72;65.90;99395.97;5132248;27;20051;-55
2024/03/24 06:05:07;;;;;;;5.60;1.98;;;;;;;8.55;65.99;99397.06;5131856;27;20074;-56
2024/03/24 06:07:35;;;;;;;4.15;2.10;;;;;;;8.55;67.00;99405.06;5131953;27;20055;-53
2024/03/24 06:10:03;;;;;;;5.13;2.10;;;;;;;8.51;66.39;99411.53;5132170;27;20507;-53
2024/03/24 06:12:30;;;;;;;4.50;2.08;;;;;;;8.69;66.39;99412.16;5131958;27;20051;-54
2024/03/24 06:14:57;;;;;;;3.85;2.05;;;;;;;8.68;66.10;99410.41;5132379;27;20051;-53
2024/03/24 06:17:23;;;;;;;5.28;2.00;;;;;;;8.82;65.22;99416.53;5132141;27;20427;-56
2024/03/24 06:19:51;;;;;;;5.93;2.20;;;;;;;8.65;64.95;99426.56;5132010;27;20051;-54
2024/03/24 06:22:17;;;;;;;4.72;2.17;;;;;;;8.87;64.86;99421.53;5132206;27;20043;-53
2024/03/24 06:24:46;;;;;;;5.82;2.20;;;;;;;8.86;64.97;99435.78;5131822;27;20138;-54
2024/03/24 06:27:12;;;;;;;5.00;2.10;;;;;;;9.02;65.07;99451.59;5131705;27;20078;-54
2024/03/24 06:29:40;;;;;;;3.95;1.90;;;;;;;9.15;63.91;99458.66;5131618;27;20039;-50
2024/03/24 06:32:06;;;;;;;3.85;1.92;;;;;;;9.04;63.69;99465.66;5131347;27;20514;-53
2024/03/24 06:34:34;;;;;;;3.25;1.88;;;;;;;8.95;63.35;99467.09;5131607;27;20090;-52
2024/03/24 06:37:00;;;;;;;3.20;1.70;;;;;;;9.16;62.92;99486.09;5131459;27;20043;-52
2024/03/24 06:39:27;;;;;;;2.97;1.70;;;;;;;9.27;62.57;99488.09;5131492;27;20417;-51
2024/03/24 06:41:56;;;;;;;3.88;1.67;;;;;;;9.44;61.97;99487.78;5131615;27;20481;-53
2024/03/24 06:44:24;;;;;;;3.72;1.60;;;;;;;9.44;61.62;99491.28;5131432;27;20456;-53
2024/03/24 06:46:50;;;;;;;4.43;1.88;;;;;;;9.65;61.60;99494.34;5131421;27;20092;-55
2024/03/24 06:49:17;;;;;;;4.75;2.15;;;;;;;9.28;61.32;99492.44;5131401;27;20043;-53
2024/03/24 06:51:44;;;;;;;3.97;1.70;;;;;;;9.01;61.21;99500.44;5131184;27;20163;-56
2024/03/24 06:54:11;;;;;;;17.92;9.45;;;;;;;9.57;64.06;99491.34;5131035;27;20043;-55
2024/03/24 06:56:38;;;;;;;6.07;2.38;;;;;;;9.71;60.51;99501.88;5131298;27;20146;-55
2024/03/24 06:59:07;;;;;;;7.45;3.05;;;;;;;9.74;59.73;99504.31;5113915;27;20050;-55
2024/03/24 07:01:33;;;;;;;8.82;3.85;;;;;;;9.87;59.68;99498.19;5131013;27;20044;-52
2024/03/24 07:04:00;;;;;;;2.85;1.63;;;;;;;9.80;59.31;99513.72;5130961;27;20050;-50
2024/03/24 07:06:26;;;;;;;3.75;1.80;;;;;;;10.07;59.27;99502.13;5130882;27;20046;-49
2024/03/24 07:08:54;;;;;;;3.40;1.85;;;;;;;10.22;59.14;99504.56;5131090;27;20387;-51
2024/03/24 07:11:20;;;;;;;3.67;1.63;;;;;;;10.39;58.04;99495.38;5131166;27;20422;-54
2024/03/24 07:13:47;;;;;;;3.58;1.50;;;;;;;10.54;57.79;99498.78;5130744;27;20043;-51
2024/03/24 07:16:15;;;;;;;4.32;1.60;;;;;;;10.76;57.47;99501.59;5130496;27;20095;-50
2024/03/24 07:18:42;;;;;;;5.72;2.08;;;;;;;10.76;56.97;99509.59;5130719;27;20039;-53
2024/03/24 07:21:08;;;;;;;3.40;1.40;;;;;;;10.60;56.84;99509.00;5130573;27;20054;-51
2024/03/24 07:23:36;;;;;;;5.38;1.60;;;;;;;10.14;56.81;99509.59;5130651;27;20043;-51
2024/03/24 07:26:03;;;;;;;4.70;2.03;;;;;;;10.35;56.68;99509.91;5130530;27;20053;-50
2024/03/24 07:28:30;;;;;;;5.75;1.90;;;;;;;10.41;56.11;99501.47;5130453;27;20077;-52
2024/03/24 07:30:56;;;;;;;3.75;1.60;;;;;;;10.27;56.21;99502.44;5130577;27;20406;-52
2024/03/24 07:33:25;;;;;;;4.90;1.70;;;;;;;10.40;55.95;99493.56;5130963;27;20047;-52
2024/03/24 07:35:51;;;;;;;6.05;1.90;;;;;;;10.65;55.63;99490.84;5130999;27;20050;-52
2024/03/24 07:38:18;;;;;;;8.10;3.33;;;;;;;10.57;55.31;99488.75;5131857;27;20397;-51
2024/03/24 07:40:45;;;;;;;6.70;3.00;;;;;;;10.54;54.29;99482.78;5130471;27;20047;-52
2024/03/24 07:43:12;;;;;;;4.85;1.98;;;;;;;10.83;54.21;99481.50;5131022;27;20109;-53
2024/03/24 07:45:38;;;;;;;6.20;1.60;;;;;;;11.02;54.05;99472.16;5130879;27;20176;-52
2024/03/24 07:48:06;;;;;;;3.00;1.63;;;;;;;10.92;53.64;99471.13;5113605;28;20051;-50
2024/03/24 07:50:34;;;;;;;4.35;1.83;;;;;;;11.00;53.53;99474.06;5130365;27;20044;-51
2024/03/24 07:53:01;;;;;;;2.42;1.45;;;;;;;11.19;53.14;99466.38;5130251;27;20562;-54
2024/03/24 07:55:27;;;;;;;3.60;1.73;;;;;;;11.30;52.35;99466.47;5130101;27;20047;-51
2024/03/24 07:57:54;;;;;;;4.70;1.70;;;;;;;11.20;52.33;99462.78;5129952;28;20479;-52
2024/03/24 08:00:22;;;;;;;3.78;1.83;;;;;;;11.04;53.11;99470.22;5130143;28;20043;-52
2024/03/24 08:02:49;;;;;;;3.35;1.85;;;;;;;11.54;53.17;99463.72;5130146;28;20505;-55
2024/03/24 08:05:15;;;;;;;3.15;1.60;;;;;;;11.85;52.16;99456.88;5130322;27;20055;-55
2024/03/24 08:07:44;;;;;;;6.50;2.30;;;;;;;11.94;51.41;99460.66;5130144;28;20043;-54
2024/03/24 08:10:12;;;;;;;3.38;1.75;;;;;;;12.22;50.92;99459.34;5130827;27;20127;-51
2024/03/24 08:12:40;;;;;;;4.75;1.80;;;;;;;12.09;50.47;99458.63;5130821;28;20065;-54
2024/03/24 08:15:07;;;;;;;4.22;2.00;;;;;;;12.07;50.46;99460.56;5131020;27;20051;-54
2024/03/24 08:17:36;;;;;;;4.15;1.85;;;;;;;12.25;50.17;99464.44;5131356;27;20058;-56
2024/03/24 08:20:06;;;;;;;3.30;1.80;;;;;;;12.40;50.17;99463.22;5131148;27;20047;-54
2024/03/24 08:22:33;;;;;;;4.63;1.90;;;;;;;12.60;49.33;99454.44;5131286;27;20050;-56
2024/03/24 08:25:00;;;;;;;4.10;2.00;;;;;;;12.79;49.39;99460.97;5131292;27;20050;-55
2024/03/24 08:27:28;;;;;;;7.55;1.88;;;;;;;12.79;49.10;99463.66;5131587;27;20039;-55
2024/03/24 08:29:57;;;;;;;3.88;1.50;;;;;;;12.14;49.01;99467.13;5135716;27;20043;-57
2024/03/24 08:32:24;;;;;;;4.22;1.73;;;;;;;12.50;48.55;99464.19;5134770;27;20078;-55
2024/03/24 08:34:51;;;;;;;3.90;2.00;;;;;;;12.51;48.26;99455.19;5134522;27;20055;-55
2024/03/24 08:37:18;;;;;;;4.05;1.70;;;;;;;12.82;48.01;99456.22;5133202;27;20047;-55
2024/03/24 08:39:44;;;;;;;4.70;1.90;;;;;;;13.11;47.70;99459.16;5134383;27;20057;-55
2024/03/24 08:42:14;;;;;;;4.47;1.90;;;;;;;12.97;48.05;99456.78;5134340;27;20516;-52
2024/03/24 08:44:43;;;;;;;28.23;17.87;;;;;;;13.28;59.13;99447.09;5134819;27;20047;-61
2024/03/24 08:47:11;;;;;;;14.80;8.07;;;;;;;13.55;51.49;99457.31;5134655;27;20605;-59
2024/03/24 08:49:38;;;;;;;3.30;1.90;;;;;;;12.58;49.14;99451.06;5134108;27;20039;-60
2024/03/24 08:52:05;;;;;;;4.03;1.60;;;;;;;12.19;49.48;99454.25;5134392;27;20051;-61
2024/03/24 08:54:32;;;;;;;3.45;1.73;;;;;;;12.09;49.09;99450.59;5134027;27;20541;-61
2024/03/24 08:56:59;;;;;;;4.28;1.90;;;;;;;12.09;49.30;99461.31;5134157;27;20039;-61
2024/03/24 08:59:27;;;;;;;5.28;1.95;;;;;;;11.22;50.26;99460.84;5134060;27;20061;-59
2024/03/24 09:01:54;;;;;;;10.63;6.32;;;;;;;11.97;54.06;99447.09;5134370;27;20554;-59
2024/03/24 09:04:22;;;;;;;6.57;2.22;;;;;;;12.59;49.48;99450.06;5133613;27;20047;-59
2024/03/24 09:06:49;;;;;;;4.30;1.80;;;;;;;12.48;48.43;99449.25;5132004;27;20054;-60
2024/03/24 09:09:15;;;;;;;4.07;1.90;;;;;;;12.20;49.33;99439.91;5133236;27;20074;-58
2024/03/24 09:11:43;;;;;;;3.80;1.80;;;;;;;11.80;49.16;99444.88;5132733;27;20129;-58
2024/03/24 09:14:09;;;;;;;2.90;1.80;;;;;;;11.53;49.59;99439.81;5131909;27;20043;-60
2024/03/24 09:16:38;;;;;;;5.85;3.00;;;;;;;10.99;50.78;99433.19;5130997;27;20043;-59
2024/03/24 09:19:04;;;;;;;4.30;1.95;;;;;;;11.42;49.91;99430.81;5133082;27;20055;-62
2024/03/24 09:21:31;;;;;;;4.72;1.70;;;;;;;11.65;49.85;99430.84;5133251;27;20435;-61
2024/03/24 09:23:58;;;;;;;3.75;2.10;;;;;;;11.45;48.61;99422.56;5133091;27;20085;-61
2024/03/24 09:26:25;;;;;;;3.88;1.80;;;;;;;11.46;48.67;99426.91;5133215;27;20047;-63
2024/03/24 09:28:51;;;;;;;4.18;1.77;;;;;;;12.17;48.48;99429.47;5132983;27;20051;-63
2024/03/24 09:31:18;;;;;;;3.67;1.70;;;;;;;12.25;47.02;99421.66;5132562;27;20108;-61
2024/03/24 09:33:46;;;;;;;4.60;1.80;;;;;;;12.06;46.54;99424.09;5132754;27;20082;-60
2024/03/24 09:36:16;;;;;;;3.47;1.40;;;;;;;12.03;45.92;99420.69;5133023;27;20436;-61
2024/03/24 09:38:44;;;;;;;2.47;1.33;;;;;;;11.79;44.16;99419.94;5133202;27;20043;-61
2024/03/24 09:41:11;;;;;;;2.25;1.30;;;;;;;12.05;44.22;99417.91;5131717;27;20047;-60
2024/03/24 09:43:37;;;;;;;2.53;1.38;;;;;;;12.07;44.47;99412.47;5133220;27;20168;-60
2024/03/24 09:46:05;;;;;;;2.42;1.42;;;;;;;11.63;45.63;99414.09;5132674;27;20091;-60
2024/03/24 09:48:33;;;;;;;2.92;1.60;;;;;;;11.86;45.73;99421.19;5132630;27;20051;-60
2024/03/24 09:51:02;;;;;;;4.03;1.60;;;;;;;12.21;45.44;99409.53;5132809;27;20043;-61
2024/03/24 09:53:31;;;;;;;2.38;1.50;;;;;;;12.18;44.58;99405.28;5132426;27;20137;-60
2024/03/24 09:56:00;;;;;;;3.60;1.50;;;;;;;12.10;43.89;99398.84;5133068;27;20480;-61
2024/03/24 09:58:28;;;;;;;2.25;1.30;;;;;;;12.16;44.27;99401.00;5133733;27;20130;-62
2024/03/24 10:00:55;;;;;;;2.65;1.30;;;;;;;11.97;43.68;99410.53;5132396;27;20149;-58
2024/03/24 10:03:22;;;;;;;2.92;1.80;;;;;;;12.15;43.49;99404.66;5132099;27;20047;-61
2024/03/24 10:05:49;;;;;;;2.33;1.50;;;;;;;12.51;43.06;99398.16;5132068;27;20043;-61
2024/03/24 10:08:18;;;;;;;2.90;1.30;;;;;;;12.62;42.99;99392.78;5132541;27;20047;-59
2024/03/24 10:10:45;;;;;;;2.45;1.45;;;;;;;12.92;42.84;99388.53;5133484;27;20043;-60
2024/03/24 10:13:12;;;;;;;2.58;1.40;;;;;;;13.37;42.06;99386.53;5132095;27;20119;-60
2024/03/24 10:15:39;;;;;;;2.38;1.40;;;;;;;13.60;41.59;99389.91;5132118;27;20484;-60
2024/03/24 10:18:09;;;;;;;3.50;1.48;;;;;;;13.25;41.77;99385.75;5132335;27;20053;-60
2024/03/24 10:20:38;;;;;;;3.33;1.60;;;;;;;13.44;41.99;99385.03;5132298;27;20104;-60
2024/03/24 10:23:06;;;;;;;4.68;1.50;;;;;;;13.00;41.83;99378.91;5132140;27;20381;-61
2024/03/24 10:25:33;;;;;;;3.17;1.45;;;;;;;13.18;41.63;99385.38;5132238;27;20548;-61
2024/03/24 10:28:02;;;;;;;4.57;1.45;;;;;;;12.96;41.67;99373.94;5131729;27;20126;-61
2024/03/24 10:30:28;;;;;;;3.72;1.70;;;;;;;12.83;41.53;99379.44;5132289;27;20047;-62
2024/03/24 10:32:55;;;;;;;2.88;1.45;;;;;;;13.04;41.55;99379.50;5132042;27;20096;-61
2024/03/24 10:35:21;;;;;;;3.72;1.50;;;;;;;12.94;42.04;99376.75;5131932;27;20058;-62
2024/03/24 10:37:49;;;;;;;2.92;1.50;;;;;;;12.79;41.57;99370.84;5132224;27;20051;-59
2024/03/24 10:40:16;;;;;;;2.85;1.30;;;;;;;12.56;41.60;99378.09;5132049;27;20050;-61
2024/03/24 10:42:48;;;;;;;2.75;1.48;;;;;;;12.45;42.24;99363.88;5132101;27;20047;-61
2024/03/24 10:45:21;;;;;;;2.33;1.10;;;;;;;12.60;41.54;99368.84;5132172;27;20053;-55
2024/03/24 10:47:53;;;;;;;2.33;1.15;;;;;;;12.89;42.07;99371.78;5131425;27;20186;-57
2024/03/24 10:50:20;;;;;;;9.80;5.82;;;;;;;12.76;42.41;99365.75;5131387;27;20165;-56
2024/03/24 10:52:52;;;;;;;2.88;1.55;;;;;;;12.59;41.21;99372.50;5130926;27;20122;-55
2024/03/24 10:55:19;;;;;;;1.98;1.00;;;;;;;12.49;41.04;99370.69;5131288;27;20047;-58
2024/03/24 10:57:48;;;;;;;4.60;1.40;;;;;;;12.73;41.46;99362.47;5131254;27;20043;-53
2024/03/24 11:00:15;;;;;;;2.33;1.15;;;;;;;12.69;41.10;99356.53;5131427;27;20075;-55
2024/03/24 11:02:44;;;;;;;2.45;0.95;;;;;;;12.98;41.13;99346.06;5131880;27;20047;-56
2024/03/24 11:05:10;;;;;;;2.47;1.10;;;;;;;13.08;41.07;99341.63;5131055;27;20050;-59
2024/03/24 11:07:38;;;;;;;3.40;1.23;;;;;;;12.60;39.71;99342.09;5131424;27;20043;-58
2024/03/24 11:10:06;;;;;;;1.95;1.10;;;;;;;12.73;40.40;99343.72;5131699;27;20058;-57
2024/03/24 11:12:35;;;;;;;2.85;1.20;;;;;;;13.02;40.82;99344.81;5131191;27;20134;-58
2024/03/24 11:15:06;;;;;;;1.40;0.90;;;;;;;13.19;40.61;99335.38;5130525;27;20055;-55
2024/03/24 11:17:35;;;;;;;1.67;0.98;;;;;;;12.90;39.67;99337.81;5130299;27;20043;-57
2024/03/24 11:20:05;;;;;;;3.42;1.10;;;;;;;12.79;39.44;99340.56;5130790;27;20047;-55
2024/03/24 11:22:36;;;;;;;3.13;1.08;;;;;;;12.73;39.88;99330.34;5130810;27;20524;-57
2024/03/24 11:25:03;;;;;;;2.97;0.90;;;;;;;13.09;39.92;99321.06;5130850;27;20051;-56
2024/03/24 11:27:31;;;;;;;1.92;0.98;;;;;;;13.06;39.72;99324.84;5130638;27;20047;-56
2024/03/24 11:29:58;;;;;;;2.10;1.02;;;;;;;12.80;39.35;99326.19;5130754;27;20542;-57
2024/03/24 11:32:52;;;;;;;3.20;0.95;;;;;;;12.83;39.87;99326.78;5130651;27;20058;-55
2024/03/24 11:35:23;;;;;;;3.03;1.13;;;;;;;12.88;39.93;99323.72;5130430;27;20120;-54
2024/03/24 11:37:52;;;;;;;1.20;1.00;;;;;;;13.14;39.26;99314.34;5133573;27;20078;-57
2024/03/24 11:40:23;;;;;;;2.35;0.73;;;;;;;12.99;39.91;99310.28;5142225;27;20039;-58